createdAt,value
2022-08-17T00:01:17.162Z,99601.75
2022-08-17T00:03:59.105Z,99598.66
2022-08-17T00:06:32.894Z,99594.41
2022-08-17T00:09:06.785Z,99597.63
2022-08-17T00:12:40.469Z,99594.41
2022-08-17T00:14:40.196Z,99596.41
2022-08-17T00:17:20.613Z,99590.28
2022-08-17T00:19:54.281Z,99596.91
2022-08-17T00:22:33.717Z,99595.56
2022-08-17T00:25:17.982Z,99591.44
2022-08-17T00:27:51.455Z,99597.22
2022-08-17T00:30:25.088Z,99599.59
2022-08-17T00:33:14.003Z,99605.53
2022-08-17T00:35:50.819Z,99607.75
2022-08-17T00:38:28.650Z,99613.50
2022-08-17T00:41:05.840Z,99608.38
2022-08-17T00:43:42.583Z,99615.88
2022-08-17T00:46:20.167Z,99625.03
2022-08-17T00:48:55.816Z,99634.19
2022-08-17T00:51:34.722Z,99627.38
2022-08-17T00:54:15.349Z,99621.09
2022-08-17T00:56:53.372Z,99612.06
2022-08-17T00:59:31.553Z,99613.94
2022-08-17T01:02:08.069Z,99605.09
2022-08-17T01:04:44.559Z,99606.94
2022-08-17T01:07:19.977Z,99606.94
2022-08-17T01:09:53.675Z,99609.66
2022-08-17T01:12:27.524Z,99606.25
2022-08-17T01:15:01.069Z,99612.69
2022-08-17T01:17:36.414Z,99612.88
2022-08-17T01:20:11.883Z,99608.63
2022-08-17T01:22:47.221Z,99612.34
2022-08-17T01:25:22.856Z,99611.66
2022-08-17T01:27:56.574Z,99623.53
2022-08-17T01:30:57.830Z,99621.16
2022-08-17T01:33:23.910Z,99620.47
2022-08-17T01:35:57.639Z,99628.09
2022-08-17T01:38:35.033Z,99631.97
2022-08-17T01:41:12.704Z,99626.72
2022-08-17T01:43:50.353Z,99632.31
2022-08-17T01:46:27.114Z,99635.91
2022-08-17T01:49:01.730Z,99637.75
2022-08-17T01:51:35.671Z,99631.47
2022-08-17T01:54:17.389Z,99636.06
2022-08-17T01:56:53.023Z,99633.50
2022-08-17T01:59:26.737Z,99630.06
2022-08-17T02:02:01.410Z,99637.38
2022-08-17T02:04:36.104Z,99628.69
2022-08-17T02:07:09.701Z,99629.84
2022-08-17T02:09:45.211Z,99630.34
2022-08-17T02:12:39.328Z,99636.09
2022-08-17T02:15:15.989Z,99632.69
2022-08-17T02:17:54.827Z,99628.41
2022-08-17T02:20:42.079Z,99628.41
2022-08-17T02:23:17.171Z,99626.72
2022-08-17T02:25:52.347Z,99624.16
2022-08-17T02:28:26.356Z,99619.91
2022-08-17T02:31:06.166Z,99620.22
2022-08-17T02:33:42.623Z,99627.84
2022-08-17T02:36:17.059Z,99621.72
2022-08-17T02:38:51.768Z,99619.16
2022-08-17T02:41:29.765Z,99615.72
2022-08-17T02:44:07.076Z,99620.31
2022-08-17T02:46:40.617Z,99612.47
2022-08-17T02:49:14.153Z,99618.94
2022-08-17T02:51:47.723Z,99613.63
2022-08-17T02:54:39.907Z,99608.53
2022-08-17T02:57:16.231Z,99617.66
2022-08-17T02:59:49.740Z,99619.69
2022-08-17T03:02:23.362Z,99617.28
2022-08-17T03:04:56.969Z,99617.44
2022-08-17T03:07:31.940Z,99622.34
2022-08-17T03:10:06.489Z,99616.06
2022-08-17T03:12:43.518Z,99615.34
2022-08-17T03:15:20.597Z,99622.97
2022-08-17T03:17:54.757Z,99622.97
2022-08-17T03:20:30.639Z,99621.41
2022-08-17T03:23:05.294Z,99618.84
2022-08-17T03:25:43.424Z,99627.31
2022-08-17T03:28:19.216Z,99625.63
2022-08-17T03:30:53.555Z,99623.06
2022-08-17T03:33:27.230Z,99630.19
2022-08-17T03:36:00.936Z,99633.78
2022-08-17T03:38:39.012Z,99631.06
2022-08-17T03:41:14.136Z,99635.63
2022-08-17T03:43:49.099Z,99636.66
2022-08-17T03:46:39.860Z,99638.47
2022-08-17T03:49:30.604Z,99635.91
2022-08-17T03:52:21.600Z,99633.53
2022-08-17T03:55:12.451Z,99632.38
2022-08-17T03:57:46.140Z,99632.38
2022-08-17T04:00:21.417Z,99639.66
2022-08-17T04:02:56.155Z,99634.09
2022-08-17T04:05:30.320Z,99645.63
2022-08-17T04:08:08.300Z,99646.47
2022-08-17T04:10:45.126Z,99641.75
2022-08-17T04:13:24.877Z,99654.00
2022-08-17T04:16:00.722Z,99652.69
2022-08-17T04:18:34.357Z,99656.09
2022-08-17T04:21:10.644Z,99658.34
2022-08-17T04:23:44.203Z,99662.28
2022-08-17T04:26:52.657Z,99669.13
2022-08-17T04:29:13.210Z,99666.97
2022-08-17T04:31:48.318Z,99662.09
2022-08-17T04:34:22.211Z,99663.47
2022-08-17T04:36:56.408Z,99666.56
2022-08-17T04:39:30.172Z,99665.09
2022-08-17T04:42:17.144Z,99678.88
2022-08-17T04:44:50.814Z,99676.53
2022-08-17T04:47:29.266Z,99673.88
2022-08-17T04:50:04.253Z,99687.38
2022-08-17T04:52:47.001Z,99675.69
2022-08-17T04:55:20.867Z,99677.59
2022-08-17T04:57:54.422Z,99684.13
2022-08-17T05:00:28.038Z,99677.88
2022-08-17T05:03:03.586Z,99681.00
2022-08-17T05:05:39.533Z,99681.88
2022-08-17T05:08:13.109Z,99686.34
2022-08-17T05:10:47.500Z,99693.34
2022-08-17T05:13:23.466Z,99699.34
2022-08-17T05:15:59.579Z,99695.31
2022-08-17T05:18:34.625Z,99690.38
2022-08-17T05:21:08.801Z,99693.88
2022-08-17T05:23:43.487Z,99698.31
2022-08-17T05:26:26.869Z,99695.59
2022-08-17T05:29:03.025Z,99695.44
2022-08-17T05:31:36.736Z,99697.16
2022-08-17T05:34:11.779Z,99696.31
2022-08-17T05:36:45.530Z,99690.84
2022-08-17T05:39:19.198Z,99689.84
2022-08-17T05:41:52.774Z,99688.44
2022-08-17T05:44:26.494Z,99686.59
2022-08-17T05:47:01.818Z,99686.41
2022-08-17T05:49:37.780Z,99682.47
2022-08-17T05:52:21.173Z,99689.06
2022-08-17T05:55:06.573Z,99685.59
2022-08-17T05:57:53.541Z,99685.41
2022-08-17T06:00:33.260Z,99684.22
2022-08-17T06:03:40.219Z,99691.59
2022-08-17T06:06:38.328Z,99699.03
2022-08-17T06:09:36.535Z,99700.81
2022-08-17T06:12:28.488Z,99698.22
2022-08-17T06:15:15.431Z,99698.91
2022-08-17T06:17:50.650Z,99708.41
2022-08-17T06:20:26.668Z,99700.25
2022-08-17T06:23:06.686Z,99688.13
2022-08-17T06:25:46.288Z,99694.50
2022-08-17T06:28:28.925Z,99691.13
2022-08-17T06:31:08.694Z,99688.09
2022-08-17T06:33:47.640Z,99701.13
2022-08-17T06:36:31.755Z,99695.16
2022-08-17T06:39:30.822Z,99696.38
2022-08-17T06:43:02.909Z,99701.59
2022-08-17T06:45:16.467Z,99706.19
2022-08-17T06:47:56.917Z,99701.75
2022-08-17T06:50:37.178Z,99693.84
2022-08-17T06:53:21.847Z,99707.56
2022-08-17T06:56:01.213Z,99708.31
2022-08-17T06:58:36.068Z,99708.59
2022-08-17T07:01:18.370Z,99694.41
2022-08-17T07:04:11.787Z,99710.81
2022-08-17T07:06:52.641Z,99706.59
2022-08-17T07:09:30.105Z,99699.41
2022-08-17T07:12:16.455Z,99711.06
2022-08-17T07:14:53.253Z,99702.84
2022-08-17T07:17:46.842Z,99698.88
2022-08-17T07:20:23.716Z,99699.13
2022-08-17T07:23:04.603Z,99703.19
2022-08-17T07:25:38.323Z,99707.41
2022-08-17T07:28:13.332Z,99700.94
2022-08-17T07:30:50.315Z,99699.81
2022-08-17T07:33:27.698Z,99691.53
2022-08-17T07:36:01.880Z,99697.56
2022-08-17T07:38:36.719Z,99694.91
2022-08-17T07:41:12.823Z,99697.97
2022-08-17T07:43:52.427Z,99688.97
2022-08-17T07:46:45.932Z,99693.06
2022-08-17T07:49:26.293Z,99693.38
2022-08-17T07:52:48.145Z,99692.00
2022-08-17T07:55:01.279Z,99697.13
2022-08-17T07:57:37.208Z,99691.41
2022-08-17T08:00:31.420Z,99700.53
2022-08-17T08:03:20.494Z,99706.50
2022-08-17T08:06:00.467Z,99700.09
2022-08-17T08:08:38.983Z,99699.88
2022-08-17T08:11:15.691Z,99707.69
2022-08-17T08:13:50.058Z,99716.53
2022-08-17T08:16:29.450Z,99716.91
2022-08-17T08:19:04.247Z,99719.59
2022-08-17T08:21:50.132Z,99722.59
2022-08-17T08:24:45.723Z,99716.03
2022-08-17T08:27:43.914Z,99729.16
2022-08-17T08:30:21.558Z,99719.56
2022-08-17T08:33:09.594Z,99717.69
2022-08-17T08:35:50.463Z,99716.81
2022-08-17T08:38:36.617Z,99721.19
2022-08-17T08:41:24.783Z,99721.63
2022-08-17T08:44:11.526Z,99721.66
2022-08-17T08:46:57.885Z,99712.34
2022-08-17T08:50:30.136Z,99721.34
2022-08-17T08:53:23.735Z,99726.56
2022-08-17T08:56:04.485Z,99724.13
2022-08-17T08:58:50.877Z,99727.63
2022-08-17T09:01:34.838Z,99716.94
2022-08-17T09:04:25.488Z,99726.69
2022-08-17T09:07:10.335Z,99725.75
2022-08-17T09:09:59.011Z,99729.19
2022-08-17T09:12:43.210Z,99726.63
2022-08-17T09:15:21.661Z,99726.25
2022-08-17T09:19:01.608Z,99727.88
2022-08-17T09:21:00.319Z,99729.84
2022-08-17T09:23:41.242Z,99732.56
2022-08-17T09:26:23.107Z,99733.34
2022-08-17T09:29:02.722Z,99719.78
2022-08-17T09:31:48.929Z,99730.41
2022-08-17T09:34:33.157Z,99727.81
2022-08-17T09:37:20.699Z,99721.19
2022-08-17T09:40:09.735Z,99730.44
2022-08-17T09:42:49.794Z,99720.72
2022-08-17T09:45:35.552Z,99722.69
2022-08-17T09:48:15.843Z,99726.84
2022-08-17T09:51:05.998Z,99725.31
2022-08-17T09:53:40.930Z,99726.59
2022-08-17T09:56:39.137Z,99726.72
2022-08-17T09:59:38.193Z,99720.16
2022-08-17T10:02:44.127Z,99721.06
2022-08-17T10:05:23.912Z,99721.53
2022-08-17T10:08:03.479Z,99727.97
2022-08-17T10:10:52.274Z,99727.28
2022-08-17T10:13:39.661Z,99717.72
2022-08-17T10:16:23.382Z,99715.59
2022-08-17T10:19:10.887Z,99722.50
2022-08-17T10:22:32.473Z,99719.72
2022-08-17T10:25:22.055Z,99725.13
2022-08-17T10:28:01.362Z,99726.44
2022-08-17T10:30:47.880Z,99721.81
2022-08-17T10:33:25.134Z,99723.47
2022-08-17T10:36:10.660Z,99721.53
2022-08-17T10:38:48.258Z,99725.75
2022-08-17T10:41:28.074Z,99721.25
2022-08-17T10:44:39.280Z,99735.75
2022-08-17T10:47:09.452Z,99728.19
2022-08-17T10:49:48.055Z,99725.31
2022-08-17T10:52:51.913Z,99728.78
2022-08-17T10:55:25.987Z,99721.00
2022-08-17T10:58:21.239Z,99722.84
2022-08-17T11:00:59.876Z,99723.31
2022-08-17T11:03:35.198Z,99732.25
2022-08-17T11:06:19.462Z,99733.06
2022-08-17T11:09:27.740Z,99728.41
2022-08-17T11:12:25.831Z,99723.81
2022-08-17T11:15:25.718Z,99725.91
2022-08-17T11:18:14.508Z,99725.88
2022-08-17T11:21:09.363Z,99729.09
2022-08-17T11:24:14.410Z,99739.78
2022-08-17T11:27:03.418Z,99737.34
2022-08-17T11:29:52.007Z,99734.38
2022-08-17T11:32:37.453Z,99745.41
2022-08-17T11:35:35.095Z,99740.03
2022-08-17T11:38:25.937Z,99734.16
2022-08-17T11:41:20.559Z,99747.09
2022-08-17T11:44:26.253Z,99740.59
2022-08-17T11:47:28.750Z,99745.25
2022-08-17T11:50:49.964Z,99744.72
2022-08-17T11:57:02.576Z,99726.50
2022-08-17T12:00:00.139Z,99733.56
2022-08-17T12:02:47.465Z,99732.91
2022-08-17T12:05:42.679Z,99732.16
2022-08-17T12:08:21.627Z,99749.69
2022-08-17T12:11:01.660Z,99721.03
2022-08-17T12:13:48.021Z,99735.38
2022-08-17T12:16:23.345Z,99743.16
2022-08-17T12:18:59.352Z,99741.56
2022-08-17T12:21:46.419Z,99748.13
2022-08-17T12:24:31.544Z,99746.25
2022-08-17T12:27:10.131Z,99747.38
2022-08-17T12:29:48.308Z,99748.34
2022-08-17T12:32:23.921Z,99753.97
2022-08-17T12:34:57.699Z,99750.91
2022-08-17T12:37:34.522Z,99747.13
2022-08-17T12:40:18.445Z,99744.34
2022-08-17T12:42:57.792Z,99735.69
2022-08-17T12:45:34.259Z,99737.38
2022-08-17T12:48:11.614Z,99734.19
2022-08-17T12:50:47.368Z,99737.81
2022-08-17T12:53:25.045Z,99733.31
2022-08-17T12:56:00.431Z,99743.31
2022-08-17T12:58:37.821Z,99737.97
2022-08-17T13:01:17.972Z,99733.94
2022-08-17T13:03:54.782Z,99723.34
2022-08-17T13:06:32.223Z,99723.31
2022-08-17T13:09:14.820Z,99721.16
2022-08-17T13:11:51.263Z,99715.59
2022-08-17T13:14:25.021Z,99720.47
2022-08-17T13:17:02.471Z,99714.50
2022-08-17T13:19:40.688Z,99715.81
2022-08-17T13:22:17.093Z,99714.56
2022-08-17T13:24:55.738Z,99718.78
2022-08-17T13:27:30.570Z,99723.88
2022-08-17T13:30:08.608Z,99725.41
2022-08-17T13:32:47.404Z,99725.84
2022-08-17T13:35:46.485Z,99718.25
2022-08-17T13:38:40.760Z,99722.53
2022-08-17T13:41:33.730Z,99728.47
2022-08-17T13:44:31.520Z,99726.94
2022-08-17T13:47:07.590Z,99728.03
2022-08-17T13:49:48.942Z,99726.97
2022-08-17T13:52:39.533Z,99734.38
2022-08-17T13:55:20.270Z,99739.41
2022-08-17T13:58:00.900Z,99740.25
2022-08-17T14:00:40.946Z,99731.94
2022-08-17T14:03:15.446Z,99728.53
2022-08-17T14:05:51.602Z,99731.09
2022-08-17T14:08:26.607Z,99728.75
2022-08-17T14:11:00.422Z,99725.81
2022-08-17T14:13:34.261Z,99734.72
2022-08-17T14:16:08.333Z,99727.06
2022-08-17T14:18:56.132Z,99738.94
2022-08-17T14:21:32.726Z,99735.53
2022-08-17T14:24:07.260Z,99734.09
2022-08-17T14:26:40.827Z,99734.72
2022-08-17T14:29:15.362Z,99736.19
2022-08-17T14:31:53.352Z,99739.38
2022-08-17T14:34:28.389Z,99727.53
2022-08-17T14:37:03.497Z,99729.91
2022-08-17T14:39:37.319Z,99732.91
2022-08-17T14:42:11.727Z,99736.09
2022-08-17T14:44:45.526Z,99733.72
2022-08-17T14:47:19.409Z,99732.06
2022-08-17T14:49:53.281Z,99728.06
2022-08-17T14:52:29.629Z,99734.00
2022-08-17T14:55:03.495Z,99737.41
2022-08-17T14:57:37.192Z,99729.31
2022-08-17T15:00:11.815Z,99729.09
2022-08-17T15:02:48.416Z,99731.63
2022-08-17T15:05:24.766Z,99731.84
2022-08-17T15:08:01.036Z,99726.34
2022-08-17T15:10:35.691Z,99725.75
2022-08-17T15:13:18.367Z,99725.53
2022-08-17T15:15:52.165Z,99726.59
2022-08-17T15:18:25.886Z,99728.72
2022-08-17T15:20:59.693Z,99726.81
2022-08-17T15:23:34.906Z,99728.94
2022-08-17T15:26:09.233Z,99734.66
2022-08-17T15:28:42.880Z,99737.59
2022-08-17T15:31:18.353Z,99737.81
2022-08-17T15:34:07.955Z,99744.59
2022-08-17T15:36:49.193Z,99738.66
2022-08-17T15:39:24.603Z,99739.09
2022-08-17T15:41:58.898Z,99742.03
2022-08-17T15:44:35.069Z,99745.22
2022-08-17T15:47:09.680Z,99741.63
2022-08-17T15:49:45.556Z,99736.31
2022-08-17T15:52:21.361Z,99733.97
2022-08-17T15:54:58.903Z,99735.00
2022-08-17T15:57:34.017Z,99733.34
2022-08-17T16:00:09.747Z,99728.03
2022-08-17T16:03:44.960Z,99731.84
2022-08-17T16:05:40.768Z,99727.19
2022-08-17T16:08:20.029Z,99724.63
2022-08-17T16:10:55.841Z,99720.41
2022-08-17T16:13:31.127Z,99723.81
2022-08-17T16:16:05.101Z,99724.44
2022-08-17T16:18:39.506Z,99724.00
2022-08-17T16:21:31.178Z,99722.53
2022-08-17T16:24:16.802Z,99732.75
2022-08-17T16:26:51.950Z,99727.88
2022-08-17T16:29:25.893Z,99734.19
2022-08-17T16:31:59.839Z,99727.66
2022-08-17T16:34:34.160Z,99734.41
2022-08-17T16:37:08.524Z,99734.84
2022-08-17T16:39:42.317Z,99731.47
2022-08-17T16:42:31.366Z,99740.34
2022-08-17T16:45:08.734Z,99731.84
2022-08-17T16:47:43.178Z,99742.44
2022-08-17T16:50:18.925Z,99735.00
2022-08-17T16:52:52.852Z,99735.00
2022-08-17T16:55:26.858Z,99731.38
2022-08-17T16:58:02.601Z,99733.09
2022-08-17T17:00:36.707Z,99728.41
2022-08-17T17:03:19.432Z,99735.59
2022-08-17T17:06:03.551Z,99739.16
2022-08-17T17:08:44.677Z,99738.31
2022-08-17T17:11:25.849Z,99741.63
2022-08-17T17:14:03.515Z,99738.25
2022-08-17T17:16:45.812Z,99738.41
2022-08-17T17:19:34.469Z,99743.25
2022-08-17T17:22:15.795Z,99745.09
2022-08-17T17:25:04.052Z,99740.19
2022-08-17T17:27:47.295Z,99736.13
2022-08-17T17:30:27.241Z,99729.06
2022-08-17T17:33:06.204Z,99734.94
2022-08-17T17:35:48.865Z,99738.03
2022-08-17T17:38:28.993Z,99745.38
2022-08-17T17:41:06.926Z,99745.72
2022-08-17T17:43:41.550Z,99754.94
2022-08-17T17:46:27.352Z,99751.31
2022-08-17T17:49:02.570Z,99763.28
2022-08-17T17:52:07.922Z,99762.13
2022-08-17T17:55:05.093Z,99762.91
2022-08-17T17:57:51.416Z,99767.06
2022-08-17T18:00:27.512Z,99765.47
2022-08-17T18:03:15.367Z,99774.47
2022-08-17T18:06:06.112Z,99768.25
2022-08-17T18:08:58.206Z,99768.63
2022-08-17T18:11:59.223Z,99772.19
2022-08-17T18:14:48.063Z,99774.00
2022-08-17T18:17:24.026Z,99773.03
2022-08-17T18:19:59.221Z,99772.75
2022-08-17T18:22:32.952Z,99782.59
2022-08-17T18:25:39.863Z,99785.34
2022-08-17T18:28:25.221Z,99794.50
2022-08-17T18:31:08.201Z,99795.28
2022-08-17T18:33:44.301Z,99799.84
2022-08-17T18:36:30.479Z,99801.44
2022-08-17T18:39:13.350Z,99795.88
2022-08-17T18:41:49.045Z,99796.81
2022-08-17T18:44:29.153Z,99801.13
2022-08-17T18:47:14.581Z,99813.66
2022-08-17T18:49:50.184Z,99798.06
2022-08-17T18:52:29.794Z,99803.31
2022-08-17T18:55:09.844Z,99802.63
2022-08-17T18:57:46.150Z,99796.81
2022-08-17T19:00:38.330Z,99811.44
2022-08-17T19:03:24.876Z,99807.53
2022-08-17T19:06:19.044Z,99798.78
2022-08-17T19:08:54.173Z,99812.09
2022-08-17T19:11:30.270Z,99804.56
2022-08-17T19:14:07.969Z,99808.00
2022-08-17T19:16:49.319Z,99809.13
2022-08-17T19:19:26.807Z,99808.78
2022-08-17T19:22:10.356Z,99805.00
2022-08-17T19:24:55.765Z,99803.97
2022-08-17T19:27:43.691Z,99809.31
2022-08-17T19:30:20.515Z,99820.59
2022-08-17T19:32:54.459Z,99827.31
2022-08-17T19:35:45.497Z,99834.78
2022-08-17T19:38:31.621Z,99834.03
2022-08-17T19:41:13.312Z,99832.00
2022-08-17T19:43:58.862Z,99837.94
2022-08-17T19:46:43.057Z,99834.38
2022-08-17T19:49:40.991Z,99833.31
2022-08-17T19:52:31.978Z,99836.22
2022-08-17T19:55:20.272Z,99832.00
2022-08-17T19:58:05.523Z,99843.13
2022-08-17T20:00:48.050Z,99840.75
2022-08-17T20:03:27.203Z,99851.19
2022-08-17T20:06:19.088Z,99866.25
2022-08-17T20:09:01.117Z,99867.25
2022-08-17T20:11:41.580Z,99874.97
2022-08-17T20:14:21.131Z,99883.19
2022-08-17T20:16:58.210Z,99889.50
2022-08-17T20:19:53.496Z,99883.84
2022-08-17T20:22:49.650Z,99886.03
2022-08-17T20:25:35.268Z,99870.34
2022-08-17T20:28:24.892Z,99875.06
2022-08-17T20:31:02.254Z,99870.47
2022-08-17T20:33:39.834Z,99867.72
2022-08-17T20:36:23.704Z,99863.09
2022-08-17T20:39:01.812Z,99870.63
2022-08-17T20:42:06.473Z,99873.69
2022-08-17T20:44:42.099Z,99872.31
2022-08-17T20:47:27.220Z,99874.22
2022-08-17T20:50:04.627Z,99877.13
2022-08-17T20:52:51.758Z,99868.56
2022-08-17T20:55:55.776Z,99865.84
2022-08-17T20:58:53.922Z,99866.00
2022-08-17T21:01:39.186Z,99870.16
2022-08-17T21:07:30.360Z,99871.41
2022-08-17T21:10:18.746Z,99868.72
2022-08-17T21:13:04.811Z,99868.56
2022-08-17T21:15:44.964Z,99874.06
2022-08-17T21:18:29.690Z,99860.41
2022-08-17T21:21:21.349Z,99875.66
2022-08-17T21:24:11.657Z,99867.47
2022-08-17T21:26:55.964Z,99862.38
2022-08-17T21:29:34.111Z,99872.31
2022-08-17T21:32:24.155Z,99872.19
2022-08-17T21:35:28.792Z,99877.63
2022-08-17T21:38:05.318Z,99875.78
2022-08-17T21:40:46.157Z,99866.38
2022-08-17T21:43:26.191Z,99868.78
2022-08-17T21:46:09.749Z,99866.56
2022-08-17T21:48:48.253Z,99876.16
2022-08-17T21:51:25.682Z,99872.38
2022-08-17T21:54:01.501Z,99867.41
2022-08-17T21:56:40.170Z,99867.09
2022-08-17T21:59:27.630Z,99871.72
2022-08-17T22:02:02.637Z,99878.50
2022-08-17T22:04:41.420Z,99876.31
2022-08-17T22:07:15.432Z,99877.47
2022-08-17T22:09:51.389Z,99873.25
2022-08-17T22:12:26.384Z,99875.47
2022-08-17T22:15:02.310Z,99869.31
2022-08-17T22:17:41.275Z,99870.50
2022-08-17T22:20:20.505Z,99864.34
2022-08-17T22:23:31.351Z,99862.66
2022-08-17T22:26:09.712Z,99860.63
2022-08-17T22:28:51.211Z,99855.34
2022-08-17T22:31:28.327Z,99860.97
2022-08-17T22:34:16.974Z,99854.66
2022-08-17T22:37:10.802Z,99859.41
2022-08-17T22:39:45.461Z,99860.63
2022-08-17T22:42:19.353Z,99858.06
2022-08-17T22:44:54.747Z,99859.06
2022-08-17T22:47:39.030Z,99847.31
2022-08-17T22:50:22.244Z,99848.31
2022-08-17T22:53:19.438Z,99837.59
2022-08-17T22:56:12.650Z,99839.66
2022-08-17T22:59:10.107Z,99834.34
2022-08-17T23:01:47.228Z,99827.53
2022-08-17T23:04:35.964Z,99832.13
2022-08-17T23:07:09.855Z,99830.75
2022-08-17T23:09:43.893Z,99843.84
2022-08-17T23:12:23.283Z,99822.38
2022-08-17T23:15:02.245Z,99814.53
2022-08-17T23:17:37.711Z,99815.91
2022-08-17T23:20:14.260Z,99816.41
2022-08-17T23:22:51.390Z,99814.19
2022-08-17T23:25:28.877Z,99818.06
2022-08-17T23:28:04.303Z,99826.75
2022-08-17T23:30:41.805Z,99818.06
2022-08-17T23:33:21.501Z,99819.28
2022-08-17T23:36:00.588Z,99825.22
2022-08-17T23:38:34.291Z,99820.09
2022-08-17T23:41:13.080Z,99819.59
2022-08-17T23:43:49.655Z,99810.72
2022-08-17T23:46:25.271Z,99823.66
2022-08-17T23:49:00.752Z,99824.50
2022-08-17T23:51:42.758Z,99823.66
2022-08-17T23:54:22.752Z,99832.84
2022-08-17T23:56:56.526Z,99831.16
2022-08-17T23:59:32.853Z,99839.66
